createdAt,value
2022-12-29T00:00:20.423Z,99186.22
2022-12-29T00:01:02.790Z,99197.03
2022-12-29T00:01:44.456Z,99186.84
2022-12-29T00:02:26.170Z,99175.63
2022-12-29T00:03:07.876Z,99191.13
2022-12-29T00:03:52.065Z,99170.72
2022-12-29T00:04:33.807Z,99188.69
2022-12-29T00:05:15.582Z,99173.78
2022-12-29T00:05:58.437Z,99176.00
2022-12-29T00:06:40.029Z,99193.38
2022-12-29T00:07:21.655Z,99183.16
2022-12-29T00:08:03.302Z,99192.78
2022-12-29T00:08:44.962Z,99195.03
2022-12-29T00:09:27.039Z,99189.50
2022-12-29T00:10:09.009Z,99185.00
2022-12-29T00:10:50.589Z,99177.03
2022-12-29T00:11:32.274Z,99187.25
2022-12-29T00:12:13.889Z,99188.69
2022-12-29T00:13:14.169Z,99190.72
2022-12-29T00:14:24.186Z,99178.66
2022-12-29T00:15:26.647Z,99157.66
2022-12-29T00:16:08.541Z,99167.66
2022-12-29T00:16:51.677Z,99128.28
2022-12-29T00:17:33.345Z,99154.38
2022-12-29T00:18:14.959Z,99171.94
2022-12-29T00:18:56.642Z,99179.69
2022-12-29T00:19:56.642Z,99150.50
2022-12-29T00:20:57.312Z,99185.84
2022-12-29T00:21:57.640Z,99184.19
2022-12-29T00:22:57.806Z,99176.81
2022-12-29T00:23:57.953Z,99176.41
2022-12-29T00:24:54.570Z,99152.75
2022-12-29T00:25:55.860Z,99137.44
2022-12-29T00:26:55.845Z,99181.13
2022-12-29T00:27:58.292Z,99174.16
2022-12-29T00:29:02.050Z,99176.63
2022-12-29T00:30:02.426Z,99176.63
2022-12-29T00:31:02.729Z,99165.59
2022-12-29T00:32:03.435Z,99175.19
2022-12-29T00:33:03.699Z,99191.75
2022-12-29T00:34:03.772Z,99178.47
2022-12-29T00:35:04.016Z,99152.53
2022-12-29T00:36:10.394Z,99164.78
2022-12-29T00:36:52.198Z,99182.97
2022-12-29T00:37:52.396Z,99188.66
2022-12-29T00:38:56.141Z,99186.41
2022-12-29T00:39:56.391Z,99177.66
2022-12-29T00:40:56.819Z,99180.09
2022-12-29T00:41:58.497Z,99190.72
2022-12-29T00:42:58.697Z,99183.97
2022-12-29T00:43:59.755Z,99191.94
2022-12-29T00:44:41.359Z,99184.38
2022-12-29T00:45:24.890Z,99181.72
2022-12-29T00:46:06.564Z,99191.53
2022-12-29T00:46:48.843Z,99179.47
2022-12-29T00:47:30.507Z,99175.00
2022-12-29T00:48:12.139Z,99122.16
2022-12-29T00:49:12.269Z,99108.88
2022-12-29T00:49:53.862Z,99190.31
2022-12-29T00:50:37.212Z,99177.88
2022-12-29T00:51:18.789Z,99181.16
2022-12-29T00:52:08.930Z,99185.00
2022-12-29T00:52:50.507Z,99172.75
2022-12-29T00:53:32.179Z,99178.66
2022-12-29T00:54:14.705Z,99180.91
2022-12-29T00:54:59.286Z,99178.47
2022-12-29T00:55:40.884Z,99169.09
2022-12-29T00:56:22.488Z,99178.66
2022-12-29T00:57:05.791Z,99181.72
2022-12-29T00:57:47.346Z,99178.88
2022-12-29T00:58:30.147Z,99171.09
2022-12-29T00:59:12.483Z,99188.88
2022-12-29T00:59:54.058Z,99188.28
2022-12-29T01:00:35.809Z,99179.28
2022-12-29T01:01:17.540Z,99209.53
2022-12-29T01:01:59.769Z,99212.97
2022-12-29T01:02:43.607Z,99206.59
2022-12-29T01:03:25.402Z,99174.56
2022-12-29T01:04:09.478Z,99194.53
2022-12-29T01:04:51.056Z,99216.19
2022-12-29T01:05:32.652Z,99197.97
2022-12-29T01:06:15.485Z,99211.47
2022-12-29T01:06:57.259Z,99205.38
2022-12-29T01:07:38.837Z,99212.50
2022-12-29T01:08:20.491Z,99199.22
2022-12-29T01:09:21.264Z,99196.34
2022-12-29T01:10:11.920Z,99206.16
2022-12-29T01:11:04.144Z,99220.25
2022-12-29T01:11:45.721Z,99223.34
2022-12-29T01:12:42.541Z,99210.44
2022-12-29T01:13:25.365Z,99209.41
2022-12-29T01:14:07.644Z,99217.16
2022-12-29T01:14:49.237Z,99216.94
2022-12-29T01:15:30.860Z,99213.06
2022-12-29T01:16:12.525Z,99209.38
2022-12-29T01:16:58.154Z,99223.50
2022-12-29T01:17:39.800Z,99200.41
2022-12-29T01:18:22.813Z,99200.81
2022-12-29T01:19:04.573Z,99232.28
2022-12-29T01:19:48.752Z,99225.94
2022-12-29T01:20:30.518Z,99215.53
2022-12-29T01:21:13.991Z,99195.31
2022-12-29T01:21:56.057Z,99206.97
2022-12-29T01:22:37.837Z,99197.38
2022-12-29T01:23:19.459Z,99218.81
2022-12-29T01:24:01.060Z,99213.94
2022-12-29T01:24:42.724Z,99201.25
2022-12-29T01:25:24.370Z,99212.91
2022-12-29T01:26:13.471Z,99210.25
2022-12-29T01:26:55.956Z,99212.53
2022-12-29T01:27:37.617Z,99219.47
2022-12-29T01:28:25.639Z,99178.25
2022-12-29T01:29:07.725Z,99213.16
2022-12-29T01:29:49.427Z,99195.19
2022-12-29T01:30:31.033Z,99195.19
2022-12-29T01:31:15.173Z,99204.00
2022-12-29T01:31:56.783Z,99188.28
2022-12-29T01:32:38.434Z,99179.31
2022-12-29T01:33:20.057Z,99143.16
2022-12-29T01:34:01.760Z,99111.53
2022-12-29T01:34:43.389Z,99166.22
2022-12-29T01:35:25.030Z,99176.22
2022-12-29T01:36:12.820Z,99191.13
2022-12-29T01:36:54.499Z,99170.91
2022-12-29T01:37:36.102Z,99167.84
2022-12-29T01:38:22.713Z,99184.19
2022-12-29T01:39:04.515Z,99150.09
2022-12-29T01:39:46.160Z,99181.13
2022-12-29T01:40:29.071Z,99171.53
2022-12-29T01:41:13.154Z,99178.28
2022-12-29T01:41:54.726Z,99172.75
2022-12-29T01:42:36.301Z,99163.78
2022-12-29T01:43:17.910Z,99178.88
2022-12-29T01:44:02.620Z,99127.84
2022-12-29T01:44:53.605Z,99186.03
2022-12-29T01:45:35.207Z,99173.56
2022-12-29T01:46:48.825Z,99167.25
2022-12-29T01:47:36.338Z,99164.19
2022-12-29T01:48:19.998Z,99153.59
2022-12-29T01:49:25.212Z,99174.59
2022-12-29T01:50:25.429Z,99176.63
2022-12-29T01:51:07.969Z,99124.63
2022-12-29T01:51:56.918Z,99183.38
2022-12-29T01:52:48.454Z,99142.38
2022-12-29T01:53:33.906Z,99170.69
2022-12-29T01:54:25.845Z,99187.66
2022-12-29T01:55:14.501Z,99176.44
2022-12-29T01:56:02.591Z,99182.78
2022-12-29T01:56:45.444Z,99191.94
2022-12-29T01:57:32.697Z,99053.38
2022-12-29T01:58:20.087Z,99171.97
2022-12-29T01:59:07.319Z,99187.47
2022-12-29T02:00:09.378Z,99165.22
2022-12-29T02:00:57.245Z,99165.00
2022-12-29T02:01:39.298Z,99181.34
2022-12-29T02:02:21.664Z,99159.28
2022-12-29T02:03:04.762Z,99174.59
2022-12-29T02:03:46.891Z,99165.63
2022-12-29T02:04:32.677Z,99174.78
2022-12-29T02:05:41.341Z,99180.91
2022-12-29T02:06:28.786Z,99173.97
2022-12-29T02:07:16.188Z,99183.56
2022-12-29T02:07:57.942Z,99171.75
2022-12-29T02:08:41.740Z,99129.50
2022-12-29T02:09:24.500Z,99176.84
2022-12-29T02:10:06.857Z,99180.75
2022-12-29T02:10:49.276Z,99188.69
2022-12-29T02:11:32.113Z,99174.63
2022-12-29T02:12:14.151Z,99179.50
2022-12-29T02:12:55.835Z,99187.06
2022-12-29T02:13:38.998Z,99185.03
2022-12-29T02:14:20.781Z,99191.94
2022-12-29T02:15:06.164Z,99181.53
2022-12-29T02:16:07.783Z,99183.38
2022-12-29T02:17:18.725Z,99173.19
2022-12-29T02:18:20.606Z,99181.34
2022-12-29T02:19:21.942Z,99141.13
2022-12-29T02:20:33.811Z,99172.56
2022-12-29T02:21:18.140Z,99176.66
2022-12-29T02:22:17.744Z,99173.56
2022-12-29T02:23:30.086Z,99173.56
2022-12-29T02:24:19.285Z,99169.47
2022-12-29T02:25:24.255Z,99177.66
2022-12-29T02:26:27.507Z,99167.47
2022-12-29T02:27:26.844Z,99163.16
2022-12-29T02:28:27.010Z,99171.13
2022-12-29T02:29:30.024Z,99165.41
2022-12-29T02:30:45.498Z,99169.28
2022-12-29T02:31:41.997Z,99160.50
2022-12-29T02:32:51.463Z,99151.13
2022-12-29T02:34:05.254Z,99155.63
2022-12-29T02:35:14.572Z,99110.69
2022-12-29T02:35:58.748Z,99158.25
2022-12-29T02:37:19.794Z,99149.50
2022-12-29T02:38:34.938Z,99160.28
2022-12-29T02:39:31.102Z,99160.28
2022-12-29T02:40:20.690Z,99159.69
2022-12-29T02:41:20.095Z,99163.78
2022-12-29T02:42:18.814Z,99164.78
2022-12-29T02:43:13.445Z,99152.16
2022-12-29T02:44:11.672Z,99143.56
2022-12-29T02:45:04.565Z,99162.97
2022-12-29T02:45:58.635Z,99159.47
2022-12-29T02:46:52.746Z,99086.22
2022-12-29T02:48:15.938Z,99156.84
2022-12-29T02:49:07.707Z,99167.03
2022-12-29T02:49:58.509Z,99162.34
2022-12-29T02:50:47.705Z,99170.13
2022-12-29T02:52:06.933Z,99164.59
2022-12-29T02:52:55.269Z,99172.38
2022-12-29T02:53:56.334Z,99156.44
2022-12-29T02:54:44.179Z,99173.78
2022-12-29T02:55:27.652Z,99169.69
2022-12-29T02:56:09.329Z,99156.84
2022-12-29T02:56:50.984Z,99162.56
2022-12-29T02:57:35.612Z,99173.97
2022-12-29T02:58:22.314Z,99160.13
2022-12-29T02:59:05.148Z,99155.03
2022-12-29T02:59:52.685Z,99166.84
2022-12-29T03:00:40.785Z,99156.84
2022-12-29T03:02:10.203Z,99156.03
2022-12-29T03:03:05.767Z,99156.84
2022-12-29T03:03:47.457Z,99161.34
2022-12-29T03:04:48.669Z,99148.28
2022-12-29T03:05:35.948Z,99160.53
2022-12-29T03:06:29.424Z,99159.91
2022-12-29T03:07:24.947Z,99148.25
2022-12-29T03:08:28.998Z,99161.94
2022-12-29T03:09:41.925Z,99149.69
2022-12-29T03:10:36.243Z,99161.53
2022-12-29T03:11:36.618Z,99168.69
2022-12-29T03:12:51.246Z,99139.28
2022-12-29T03:14:06.715Z,99153.97
2022-12-29T03:15:25.800Z,99123.56
2022-12-29T03:16:32.580Z,99149.09
2022-12-29T03:17:29.375Z,99160.13
2022-12-29T03:18:28.834Z,99147.25
2022-12-29T03:19:16.654Z,99149.72
2022-12-29T03:20:08.759Z,99140.50
2022-12-29T03:21:02.018Z,99135.00
2022-12-29T03:22:12.028Z,99137.03
2022-12-29T03:23:02.762Z,99154.38
2022-12-29T03:23:50.871Z,99119.06
2022-12-29T03:24:38.567Z,99136.44
2022-12-29T03:25:40.001Z,99127.84
2022-12-29T03:26:25.158Z,99150.94
2022-12-29T03:27:10.045Z,99126.25
2022-12-29T03:28:02.611Z,99128.06
2022-12-29T03:28:53.113Z,99137.66
2022-12-29T03:29:45.909Z,99137.25
2022-12-29T03:30:30.421Z,99133.56
2022-12-29T03:31:15.283Z,99126.03
2022-12-29T03:32:00.233Z,99134.19
2022-12-29T03:32:50.423Z,99114.59
2022-12-29T03:33:33.627Z,99124.19
2022-12-29T03:34:21.081Z,99132.56
2022-12-29T03:35:04.281Z,99132.78
2022-12-29T03:35:49.706Z,99115.00
2022-12-29T03:36:39.884Z,99138.88
2022-12-29T03:37:26.928Z,99089.94
2022-12-29T03:38:20.366Z,99121.75
2022-12-29T03:39:24.699Z,99117.25
2022-12-29T03:40:07.230Z,99116.44
2022-12-29T03:40:53.712Z,99104.19
2022-12-29T03:41:36.375Z,99136.84
2022-12-29T03:42:22.472Z,99122.97
2022-12-29T03:43:05.101Z,99116.25
2022-12-29T03:43:49.003Z,99124.81
2022-12-29T03:44:36.051Z,99052.81
2022-12-29T03:45:18.458Z,99130.72
2022-12-29T03:46:02.980Z,99114.00
2022-12-29T03:46:44.650Z,99130.72
2022-12-29T03:47:27.076Z,99124.19
2022-12-29T03:48:08.813Z,99109.50
2022-12-29T03:48:53.212Z,99127.66
2022-12-29T03:49:34.948Z,99115.84
2022-12-29T03:50:19.021Z,99130.31
2022-12-29T03:51:00.704Z,99120.72
2022-12-29T03:51:42.939Z,99092.56
2022-12-29T03:52:24.560Z,99130.72
2022-12-29T03:53:08.216Z,99118.69
2022-12-29T03:53:49.915Z,99121.72
2022-12-29T03:54:32.511Z,99125.00
2022-12-29T03:55:14.114Z,99114.97
2022-12-29T03:55:56.208Z,99125.41
2022-12-29T03:56:40.930Z,99121.09
2022-12-29T03:57:23.243Z,99111.31
2022-12-29T03:58:31.073Z,99102.31
2022-12-29T03:59:21.857Z,99047.25
2022-12-29T04:00:06.687Z,99097.84
2022-12-29T04:00:57.666Z,99106.00
2022-12-29T04:01:39.536Z,99100.25
2022-12-29T04:02:23.181Z,99111.69
2022-12-29T04:03:08.003Z,99104.75
2022-12-29T04:03:49.799Z,99113.13
2022-12-29T04:04:31.588Z,99098.00
2022-12-29T04:05:13.540Z,99077.03
2022-12-29T04:05:56.078Z,99110.69
2022-12-29T04:06:38.174Z,99091.72
2022-12-29T04:07:22.302Z,99092.69
2022-12-29T04:08:09.100Z,99094.94
2022-12-29T04:08:50.756Z,99101.69
2022-12-29T04:09:32.394Z,99093.13
2022-12-29T04:10:14.462Z,99037.88
2022-12-29T04:10:56.201Z,99068.44
2022-12-29T04:11:38.500Z,99100.06
2022-12-29T04:12:20.771Z,99101.91
2022-12-29T04:13:02.478Z,99073.56
2022-12-29T04:13:44.093Z,99090.50
2022-12-29T04:14:29.584Z,99072.09
2022-12-29T04:15:11.827Z,99081.47
2022-12-29T04:15:53.546Z,99100.47
2022-12-29T04:16:36.732Z,99102.09
2022-12-29T04:17:20.161Z,99086.38
2022-12-29T04:18:04.169Z,99093.72
2022-12-29T04:18:45.852Z,99098.00
2022-12-29T04:19:27.746Z,99095.78
2022-12-29T04:20:28.967Z,99062.53
2022-12-29T04:21:13.177Z,99103.72
2022-12-29T04:21:56.879Z,99083.50
2022-12-29T04:22:38.718Z,99095.53
2022-12-29T04:23:20.488Z,99105.53
2022-12-29T04:24:02.325Z,99109.41
2022-12-29T04:24:44.027Z,99091.19
2022-12-29T04:25:27.238Z,99095.88
2022-12-29T04:26:10.160Z,99091.41
2022-12-29T04:27:04.583Z,99111.16
2022-12-29T04:28:01.972Z,99090.53
2022-12-29T04:29:09.185Z,99093.59
2022-12-29T04:30:11.512Z,99067.03
2022-12-29T04:31:19.599Z,99095.78
2022-12-29T04:32:02.119Z,99103.13
2022-12-29T04:32:45.310Z,99099.47
2022-12-29T04:33:26.953Z,99093.13
2022-12-29T04:34:09.142Z,99099.25
2022-12-29T04:34:50.812Z,99099.03
2022-12-29T04:35:33.892Z,99097.41
2022-12-29T04:36:18.660Z,99091.69
2022-12-29T04:37:00.351Z,99057.84
2022-12-29T04:37:43.363Z,99078.22
2022-12-29T04:38:25.599Z,99087.16
2022-12-29T04:39:09.718Z,99089.59
2022-12-29T04:39:53.431Z,99079.41
2022-12-29T04:40:35.187Z,99085.16
2022-12-29T04:41:16.846Z,99095.78
2022-12-29T04:41:58.782Z,99099.03
2022-12-29T04:42:41.048Z,99086.81
2022-12-29T04:43:23.233Z,99099.03
2022-12-29T04:44:19.807Z,99081.13
2022-12-29T04:45:21.817Z,99088.03
2022-12-29T04:46:12.771Z,99085.38
2022-12-29T04:47:13.168Z,99099.66
2022-12-29T04:48:03.204Z,99110.72
2022-12-29T04:49:14.011Z,99089.84
2022-12-29T04:50:22.610Z,99107.03
2022-12-29T04:51:11.441Z,99078.63
2022-12-29T04:51:54.583Z,99112.69
2022-12-29T04:52:36.817Z,99088.78
2022-12-29T04:53:19.184Z,99100.22
2022-12-29T04:54:01.427Z,99092.03
2022-12-29T04:54:44.020Z,99106.34
2022-12-29T04:55:31.617Z,99090.41
2022-12-29T04:56:13.325Z,99103.91
2022-12-29T04:56:55.047Z,99068.41
2022-12-29T04:57:36.686Z,99101.50
2022-12-29T04:58:22.877Z,99084.34
2022-12-29T04:59:05.410Z,99057.25
2022-12-29T04:59:47.170Z,99106.38
2022-12-29T05:00:30.041Z,99103.09
2022-12-29T05:01:11.790Z,99107.38
2022-12-29T05:01:53.775Z,99121.06
2022-12-29T05:02:36.262Z,99126.38
2022-12-29T05:03:20.894Z,99056.59
2022-12-29T05:04:02.675Z,99105.75
2022-12-29T05:04:44.391Z,99101.25
2022-12-29T05:05:26.394Z,99104.72
2022-12-29T05:06:08.190Z,99106.81
2022-12-29T05:06:50.087Z,99109.22
2022-12-29T05:07:34.344Z,99096.75
2022-12-29T05:08:16.117Z,99080.03
2022-12-29T05:08:58.167Z,99102.66
2022-12-29T05:09:40.001Z,99099.22
2022-12-29T05:10:21.811Z,99100.22
2022-12-29T05:11:06.746Z,99106.75
2022-12-29T05:11:49.152Z,99113.25
2022-12-29T05:12:32.527Z,99110.78
2022-12-29T05:13:15.559Z,99109.75
2022-12-29T05:13:57.778Z,99090.41
2022-12-29T05:14:39.487Z,99120.19
2022-12-29T05:15:21.375Z,99107.31
2022-12-29T05:16:03.263Z,99103.84
2022-12-29T05:16:45.005Z,99121.56
2022-12-29T05:17:27.478Z,99112.84
2022-12-29T05:18:09.182Z,99086.25
2022-12-29T05:18:50.829Z,99116.03
2022-12-29T05:19:33.326Z,99108.31
2022-12-29T05:20:17.214Z,99128.91
2022-12-29T05:20:59.065Z,99112.16
2022-12-29T05:21:40.757Z,99121.94
2022-12-29T05:22:23.636Z,99089.88
2022-12-29T05:23:05.869Z,99109.28
2022-12-29T05:23:50.444Z,99096.53
2022-12-29T05:24:32.151Z,99106.28
2022-12-29T05:25:13.786Z,99113.16
2022-12-29T05:26:12.170Z,99134.41
2022-12-29T05:27:26.463Z,99110.69
2022-12-29T05:28:34.336Z,99107.59
2022-12-29T05:29:22.604Z,99110.84
2022-12-29T05:30:04.859Z,99097.34
2022-12-29T05:30:50.754Z,99094.53
2022-12-29T05:31:34.370Z,99114.94
2022-12-29T05:32:16.138Z,99112.28
2022-12-29T05:32:58.580Z,99105.72
2022-12-29T05:33:40.284Z,99112.66
2022-12-29T05:34:22.200Z,99117.16
2022-12-29T05:35:04.240Z,99092.69
2022-12-29T05:35:48.120Z,99106.13
2022-12-29T05:36:35.800Z,99119.00
2022-12-29T05:37:19.499Z,99103.31
2022-12-29T05:38:01.512Z,99112.69
2022-12-29T05:38:43.094Z,99103.75
2022-12-29T05:39:24.740Z,99113.72
2022-12-29T05:40:11.795Z,99124.59
2022-12-29T05:40:53.502Z,99106.00
2022-12-29T05:41:53.570Z,99118.84
2022-12-29T05:43:07.407Z,99099.25
2022-12-29T05:43:56.346Z,99087.00
2022-12-29T05:44:59.952Z,99112.34
2022-12-29T05:46:02.557Z,99093.75
2022-12-29T05:46:58.211Z,99100.28
2022-12-29T05:47:49.962Z,99097.63
2022-12-29T05:48:50.182Z,99108.41
2022-12-29T05:49:54.716Z,99101.44
2022-12-29T05:51:02.422Z,99112.47
2022-12-29T05:52:02.939Z,99081.81
2022-12-29T05:52:44.912Z,99100.00
2022-12-29T05:53:26.740Z,99096.53
2022-12-29T05:54:08.391Z,99075.09
2022-12-29T05:54:50.002Z,99088.53
2022-12-29T05:55:35.552Z,99097.88
2022-12-29T05:56:17.445Z,99100.34
2022-12-29T05:57:00.683Z,99090.56
2022-12-29T05:57:42.881Z,99098.75
2022-12-29T05:58:28.281Z,99107.28
2022-12-29T05:59:09.921Z,99113.03
2022-12-29T05:59:52.180Z,99112.47
2022-12-29T06:00:33.804Z,99111.03
2022-12-29T06:01:15.656Z,99109.41
2022-12-29T06:01:57.523Z,99096.53
2022-12-29T06:02:39.469Z,99092.44
2022-12-29T06:03:21.392Z,99046.66
2022-12-29T06:04:03.592Z,99090.66
2022-12-29T06:04:46.727Z,99096.38
2022-12-29T06:05:28.505Z,99087.81
2022-12-29T06:06:10.115Z,99080.84
2022-12-29T06:06:52.271Z,99097.63
2022-12-29T06:07:49.727Z,99085.56
2022-12-29T06:08:32.414Z,99092.69
2022-12-29T06:09:14.511Z,99051.28
2022-12-29T06:09:56.194Z,99076.16
2022-12-29T06:10:37.990Z,99058.84
2022-12-29T06:11:20.732Z,99075.75
2022-12-29T06:12:09.150Z,99091.88
2022-12-29T06:12:52.533Z,99078.59
2022-12-29T06:13:34.513Z,99087.38
2022-12-29T06:14:16.243Z,99069.06
2022-12-29T06:14:57.920Z,99073.09
2022-12-29T06:15:39.615Z,99093.72
2022-12-29T06:16:23.176Z,99099.19
2022-12-29T06:17:08.482Z,99101.63
2022-12-29T06:17:50.120Z,99093.06
2022-12-29T06:18:32.685Z,99091.28
2022-12-29T06:19:14.323Z,99067.78
2022-12-29T06:19:56.110Z,99085.91
2022-12-29T06:20:37.928Z,99080.38
2022-12-29T06:21:21.460Z,99084.06
2022-12-29T06:22:03.147Z,99071.84
2022-12-29T06:22:48.542Z,99082.59
2022-12-29T06:23:31.413Z,99024.78
2022-12-29T06:24:14.226Z,99076.50
2022-12-29T06:25:04.422Z,99087.91
2022-12-29T06:25:49.547Z,99070.34
2022-12-29T06:26:31.986Z,99071.78
2022-12-29T06:27:14.858Z,99073.81
2022-12-29T06:27:56.983Z,99070.59
2022-12-29T06:28:38.574Z,99082.22
2022-12-29T06:29:21.550Z,99073.25
2022-12-29T06:30:04.071Z,99087.31
2022-12-29T06:30:46.982Z,99074.00
2022-12-29T06:31:28.620Z,99089.38
2022-12-29T06:32:11.294Z,99037.84
2022-12-29T06:32:59.111Z,99072.66
2022-12-29T06:33:40.805Z,99057.13
2022-12-29T06:34:22.824Z,99095.09
2022-12-29T06:35:05.551Z,99079.97
2022-12-29T06:35:47.397Z,99060.38
2022-12-29T06:36:32.701Z,99082.53
2022-12-29T06:37:15.540Z,99086.81
2022-12-29T06:37:57.169Z,99082.31
2022-12-29T06:38:38.798Z,99072.13
2022-12-29T06:39:20.428Z,99022.06
2022-12-29T06:40:15.213Z,99080.53
2022-12-29T06:41:32.023Z,99084.22
2022-12-29T06:42:37.506Z,99072.72
2022-12-29T06:43:41.611Z,99017.34
2022-12-29T06:44:40.033Z,99074.56
2022-12-29T06:45:25.045Z,99050.28
2022-12-29T06:46:06.930Z,99082.50
2022-12-29T06:46:49.502Z,99084.75
2022-12-29T06:47:31.079Z,99060.22
2022-12-29T06:48:12.847Z,99051.50
2022-12-29T06:48:57.350Z,99082.66
2022-12-29T06:49:38.988Z,99023.00
2022-12-29T06:50:20.693Z,99086.34
2022-12-29T06:51:02.346Z,99057.19
2022-12-29T06:51:44.138Z,99069.22
2022-12-29T06:52:25.790Z,99079.84
2022-12-29T06:53:07.354Z,99057.63
2022-12-29T06:53:49.057Z,99081.69
2022-12-29T06:54:31.879Z,99072.47
2022-12-29T06:55:13.537Z,99064.91
2022-12-29T06:55:55.224Z,99088.16
2022-12-29T06:56:36.853Z,99076.47
2022-12-29T06:57:18.788Z,99079.75
2022-12-29T06:58:01.971Z,99070.72
2022-12-29T06:58:43.599Z,99083.44
2022-12-29T06:59:25.767Z,99080.97
2022-12-29T07:00:08.203Z,99011.31
2022-12-29T07:00:49.918Z,99060.41
2022-12-29T07:01:32.093Z,99029.44
2022-12-29T07:02:19.276Z,99072.81
2022-12-29T07:03:01.136Z,99049.66
2022-12-29T07:03:44.036Z,99083.94
2022-12-29T07:04:25.739Z,99064.72
2022-12-29T07:05:08.657Z,99027.47
2022-12-29T07:05:50.324Z,99000.78
2022-12-29T07:06:32.003Z,99059.19
2022-12-29T07:07:13.877Z,99069.34
2022-12-29T07:07:56.246Z,99074.47
2022-12-29T07:08:37.845Z,99070.16
2022-12-29T07:09:19.409Z,99091.22
2022-12-29T07:10:00.999Z,99078.16
2022-12-29T07:10:42.641Z,99057.25
2022-12-29T07:11:24.614Z,99049.91
2022-12-29T07:12:06.937Z,99085.22
2022-12-29T07:12:48.804Z,99085.84
2022-12-29T07:13:30.407Z,99087.88
2022-12-29T07:14:12.563Z,99091.34
2022-12-29T07:14:54.229Z,99086.84
2022-12-29T07:15:38.055Z,99069.44
2022-12-29T07:16:19.932Z,99084.00
2022-12-29T07:17:01.779Z,99080.91
2022-12-29T07:17:46.396Z,99091.78
2022-12-29T07:18:27.987Z,99084.47
2022-12-29T07:19:09.686Z,99078.31
2022-12-29T07:19:54.360Z,99093.47
2022-12-29T07:20:35.987Z,99098.78
2022-12-29T07:21:17.761Z,99095.09
2022-12-29T07:21:59.976Z,99041.94
2022-12-29T07:22:41.643Z,99095.84
2022-12-29T07:23:23.254Z,99091.16
2022-12-29T07:24:05.377Z,99095.25
2022-12-29T07:24:47.012Z,99090.72
2022-12-29T07:25:29.738Z,99099.97
2022-12-29T07:26:13.870Z,99099.75
2022-12-29T07:26:55.792Z,99099.75
2022-12-29T07:27:37.422Z,99098.94
2022-12-29T07:28:19.027Z,99042.09
2022-12-29T07:29:02.189Z,99089.56
2022-12-29T07:29:43.805Z,99098.50
2022-12-29T07:30:25.397Z,99092.38
2022-12-29T07:31:07.254Z,99098.97
2022-12-29T07:31:48.995Z,99109.16
2022-12-29T07:32:34.757Z,99125.13
2022-12-29T07:33:16.380Z,99101.78
2022-12-29T07:33:58.983Z,99108.34
2022-12-29T07:34:40.771Z,99117.50
2022-12-29T07:35:22.432Z,99093.81
2022-12-29T07:36:07.473Z,99095.25
2022-12-29T07:36:49.072Z,99105.00
2022-12-29T07:37:30.666Z,99109.50
2022-12-29T07:38:12.384Z,99109.50
2022-12-29T07:38:54.019Z,99118.19
2022-12-29T07:39:35.671Z,99128.63
2022-12-29T07:40:17.340Z,99107.19
2022-12-29T07:40:59.437Z,99104.53
2022-12-29T07:41:41.069Z,99134.72
2022-12-29T07:42:26.601Z,99120.13
2022-12-29T07:43:08.224Z,99117.94
2022-12-29T07:43:55.975Z,99078.69
2022-12-29T07:45:11.482Z,99072.53
2022-12-29T07:46:55.075Z,99100.06
2022-12-29T07:47:27.236Z,99106.84
2022-12-29T07:48:09.364Z,99125.53
2022-12-29T07:48:51.123Z,99116.34
2022-12-29T07:49:32.843Z,99087.03
2022-12-29T07:50:14.476Z,99114.38
2022-12-29T07:50:56.264Z,99128.59
2022-12-29T07:51:38.039Z,99124.09
2022-12-29T07:52:19.754Z,99116.53
2022-12-29T07:53:02.371Z,99101.19
2022-12-29T07:53:43.980Z,99127.06
2022-12-29T07:54:25.576Z,99133.78
2022-12-29T07:55:07.749Z,99141.53
2022-12-29T07:55:49.435Z,99135.66
2022-12-29T07:56:31.044Z,99138.66
2022-12-29T07:57:12.669Z,99081.44
2022-12-29T07:57:55.073Z,99130.09
2022-12-29T07:58:36.794Z,99118.09
2022-12-29T07:59:21.062Z,99121.19
2022-12-29T08:00:04.631Z,99135.47
2022-12-29T08:00:57.519Z,99147.53
2022-12-29T08:01:39.902Z,99118.38
2022-12-29T08:02:21.645Z,99126.44
2022-12-29T08:03:03.659Z,99138.94
2022-12-29T08:03:45.361Z,99084.41
2022-12-29T08:04:26.993Z,99140.38
2022-12-29T08:05:08.869Z,99136.22
2022-12-29T08:05:50.491Z,99135.66
2022-12-29T08:06:32.116Z,99071.81
2022-12-29T08:07:13.769Z,99129.28
2022-12-29T08:07:55.361Z,99138.09
2022-12-29T08:08:37.037Z,99145.25
2022-12-29T08:09:22.665Z,99161.16
2022-12-29T08:10:07.289Z,99142.53
2022-12-29T08:10:48.943Z,99155.63
2022-12-29T08:11:30.561Z,99149.69
2022-12-29T08:12:12.161Z,99165.88
2022-12-29T08:12:53.766Z,99155.25
2022-12-29T08:13:35.383Z,99139.94
2022-12-29T08:14:17.093Z,99152.19
2022-12-29T08:14:58.719Z,99147.94
2022-12-29T08:15:40.460Z,99152.78
2022-12-29T08:16:22.214Z,99136.28
2022-12-29T08:17:03.967Z,99148.50
2022-12-29T08:17:45.565Z,99143.63
2022-12-29T08:18:27.276Z,99143.16
2022-12-29T08:19:11.950Z,99155.91
2022-12-29T08:19:54.118Z,99139.44
2022-12-29T08:20:35.697Z,99150.69
2022-12-29T08:21:17.281Z,99142.53
2022-12-29T08:21:58.928Z,99137.91
2022-12-29T08:22:41.647Z,99161.34
2022-12-29T08:23:23.261Z,99154.16
2022-12-29T08:24:05.824Z,99160.53
2022-12-29T08:24:47.509Z,99161.16
2022-12-29T08:25:29.098Z,99161.16
2022-12-29T08:26:11.344Z,99165.25
2022-12-29T08:26:52.943Z,99146.66
2022-12-29T08:27:34.579Z,99157.84
2022-12-29T08:28:16.157Z,99138.63
2022-12-29T08:28:57.870Z,99153.34
2022-12-29T08:29:39.514Z,99093.50
2022-12-29T08:30:21.225Z,99147.84
2022-12-29T08:31:03.933Z,99157.09
2022-12-29T08:31:45.914Z,99172.81
2022-12-29T08:32:29.234Z,99150.47
2022-12-29T08:33:10.948Z,99160.81
2022-12-29T08:33:52.537Z,99181.44
2022-12-29T08:34:34.248Z,99176.94
2022-12-29T08:35:16.011Z,99132.75
2022-12-29T08:36:02.312Z,99182.06
2022-12-29T08:36:43.939Z,99120.97
2022-12-29T08:37:30.947Z,99163.59
2022-12-29T08:38:12.963Z,99147.56
2022-12-29T08:38:54.630Z,99179.09
2022-12-29T08:39:36.357Z,99180.06
2022-12-29T08:40:17.969Z,99169.31
2022-12-29T08:41:01.991Z,99153.25
2022-12-29T08:41:44.768Z,99181.91
2022-12-29T08:42:31.771Z,99188.88
2022-12-29T08:43:18.477Z,99149.59
2022-12-29T08:44:00.397Z,99119.19
2022-12-29T08:44:42.068Z,99165.25
2022-12-29T08:45:23.694Z,99168.81
2022-12-29T08:46:05.842Z,99178.56
2022-12-29T08:46:47.707Z,99184.38
2022-12-29T08:47:29.393Z,99187.03
2022-12-29T08:48:10.995Z,99164.84
2022-12-29T08:48:52.677Z,99168.94
2022-12-29T08:49:34.303Z,99157.91
2022-12-29T08:50:16.034Z,99189.00
2022-12-29T08:50:57.651Z,99125.44
2022-12-29T08:51:39.443Z,99187.19
2022-12-29T08:52:21.289Z,99163.56
2022-12-29T08:53:02.936Z,99182.53
2022-12-29T08:53:44.693Z,99169.66
2022-12-29T08:54:26.373Z,99176.75
2022-12-29T08:55:08.446Z,99186.38
2022-12-29T08:56:03.698Z,99167.41
2022-12-29T08:56:50.205Z,99191.06
2022-12-29T08:57:32.020Z,99179.16
2022-12-29T08:58:21.150Z,99187.97
2022-12-29T08:59:02.786Z,99190.03
2022-12-29T08:59:45.863Z,99183.28
2022-12-29T09:00:28.681Z,99125.44
2022-12-29T09:01:12.001Z,99176.75
2022-12-29T09:01:53.854Z,99170.25
2022-12-29T09:02:35.719Z,99196.38
2022-12-29T09:03:31.357Z,99200.47
2022-12-29T09:04:19.330Z,99191.44
2022-12-29T09:05:02.022Z,99189.03
2022-12-29T09:05:49.144Z,99194.38
2022-12-29T09:06:32.671Z,99208.28
2022-12-29T09:07:16.842Z,99182.47